Time;durP1;ratioP1;P1;durP2;ratioP2;P2;SDS_P1;SDS_P2;PMS_P1;PMS_P2;Temp;Humidity;BMP_temperature;BMP_pressure;BME280_temperature;BME280_humidity;BME280_pressure;Samples;Min_cycle;Max_cycle;Signal;HPM_P1;HPM_P2
2022/04/15 00:02:11;;;;;;;8.25;2.42;;;;;;;6.75;41.27;99858.44;5032409;28;20033;-62
2022/04/15 00:04:36;;;;;;;6.85;2.65;;;;;;;6.67;40.92;99844.75;5031803;28;20539;-60
2022/04/15 00:07:02;;;;;;;6.57;2.17;;;;;;;6.70;40.76;99846.38;5031422;28;20029;-61
2022/04/15 00:09:30;;;;;;;5.85;2.45;;;;;;;6.71;40.36;99856.91;5031850;28;20025;-61
2022/04/15 00:12:00;;;;;;;6.28;2.13;;;;;;;6.72;40.78;99857.75;5032607;28;20023;-61
2022/04/15 00:14:25;;;;;;;10.00;2.70;;;;;;;6.70;40.55;99852.53;5029958;28;20091;-60
2022/04/15 00:16:50;;;;;;;12.02;2.97;;;;;;;6.70;41.29;99844.53;5040773;28;20037;-61
2022/04/15 00:19:16;;;;;;;9.82;3.70;;;;;;;6.67;41.70;99836.75;5051847;28;20398;-55
2022/04/15 00:21:43;;;;;;;12.30;4.05;;;;;;;6.67;41.88;99831.44;5051325;28;20544;-60
2022/04/15 00:24:08;;;;;;;12.88;4.60;;;;;;;6.69;42.26;99820.72;5050920;28;20416;-58
2022/04/15 00:26:34;;;;;;;15.35;4.53;;;;;;;6.81;42.31;99832.38;5051392;28;20044;-63
2022/04/15 00:28:59;;;;;;;16.33;4.68;;;;;;;6.63;42.51;99799.81;5051242;28;20029;-61
2022/04/15 00:31:25;;;;;;;20.60;4.20;;;;;;;6.87;42.82;99831.97;5050783;28;20112;-61
2022/04/15 00:33:50;;;;;;;21.90;4.88;;;;;;;6.71;43.11;99806.34;5050824;28;20079;-60
2022/04/15 00:36:16;;;;;;;20.25;4.85;;;;;;;6.94;43.07;99838.59;5051377;28;20041;-61
2022/04/15 00:38:41;;;;;;;26.65;5.50;;;;;;;6.94;43.73;99843.06;5050050;28;20091;-61
2022/04/15 00:41:13;;;;;;;17.63;5.30;;;;;;;6.99;43.45;99840.94;5050669;28;20224;-61
2022/04/15 00:43:38;;;;;;;15.80;5.20;;;;;;;6.98;44.20;99839.25;5050937;28;20116;-60
2022/04/15 00:46:05;;;;;;;21.60;5.60;;;;;;;6.98;44.36;99840.09;5051125;28;20154;-61
2022/04/15 00:48:31;;;;;;;18.80;6.00;;;;;;;7.00;44.22;99840.88;5051247;28;20455;-61
2022/04/15 00:50:56;;;;;;;18.40;5.95;;;;;;;7.03;44.86;99846.00;5050693;28;20061;-62
2022/04/15 00:53:24;;;;;;;15.85;5.50;;;;;;;6.97;45.07;99827.72;5050674;28;20081;-62
2022/04/15 00:55:54;;;;;;;22.17;5.72;;;;;;;7.06;45.05;99839.59;5050989;28;20033;-61
2022/04/15 00:58:23;;;;;;;19.58;5.72;;;;;;;7.12;45.07;99849.84;5051019;28;20511;-60
2022/04/15 01:00:53;;;;;;;21.20;6.03;;;;;;;7.11;45.26;99841.97;5050653;28;20039;-60
2022/04/15 01:03:21;;;;;;;26.77;5.95;;;;;;;7.15;45.42;99840.78;5050791;28;20449;-58
2022/04/15 01:05:49;;;;;;;17.17;6.57;;;;;;;7.13;45.32;99840.03;5051311;28;20048;-60
2022/04/15 01:08:19;;;;;;;24.08;6.32;;;;;;;7.20;45.37;99846.66;5051203;28;20032;-62
2022/04/15 01:10:47;;;;;;;20.73;6.25;;;;;;;7.21;45.46;99845.72;5050325;28;20385;-61
2022/04/15 01:13:14;;;;;;;23.13;5.90;;;;;;;7.18;45.54;99852.09;5050530;28;20083;-59
2022/04/15 01:15:40;;;;;;;23.83;7.25;;;;;;;7.16;45.39;99842.50;5050595;28;21011;-62
2022/04/15 01:18:06;;;;;;;24.00;7.15;;;;;;;7.18;45.62;99845.91;5049376;28;20033;-61
2022/04/15 01:20:32;;;;;;;22.98;7.15;;;;;;;7.17;45.84;99849.53;5050267;28;20037;-62
2022/04/15 01:23:11;;;;;;;19.23;6.63;;;;;;;7.14;45.17;99829.31;5050344;28;20465;-62
2022/04/15 01:25:37;;;;;;;19.85;6.68;;;;;;;6.88;45.63;99807.94;5050340;28;20098;-61
2022/04/15 01:28:03;;;;;;;34.22;7.63;;;;;;;7.07;45.98;99835.13;5050545;28;20029;-61
2022/04/15 01:30:29;;;;;;;19.65;6.82;;;;;;;7.04;46.17;99836.19;5050138;28;20167;-61
2022/04/15 01:32:55;;;;;;;19.30;6.80;;;;;;;7.03;46.17;99830.00;5049972;28;20124;-62
2022/04/15 01:35:21;;;;;;;16.38;6.85;;;;;;;7.01;46.48;99829.25;5050718;28;20052;-61
2022/04/15 01:37:48;;;;;;;26.25;7.50;;;;;;;6.99;46.42;99825.84;5049211;28;20439;-62
2022/04/15 01:40:16;;;;;;;25.17;7.45;;;;;;;7.00;46.80;99832.88;5050044;28;20079;-60
2022/04/15 01:42:43;;;;;;;24.92;8.00;;;;;;;6.99;46.80;99831.19;5052728;28;20041;-62
2022/04/15 01:45:10;;;;;;;24.60;8.25;;;;;;;7.01;46.77;99825.72;5054198;28;20050;-62
2022/04/15 01:47:36;;;;;;;18.35;8.02;;;;;;;6.84;46.55;99794.91;5054231;28;20040;-61
2022/04/15 01:50:03;;;;;;;25.95;7.75;;;;;;;7.02;46.64;99817.66;5054208;28;20047;-59
2022/04/15 01:52:29;;;;;;;25.23;8.70;;;;;;;7.03;46.66;99811.38;5054015;28;20036;-61
2022/04/15 01:54:54;;;;;;;22.40;8.55;;;;;;;6.97;46.48;99797.63;5054114;28;20048;-61
2022/04/15 01:57:20;;;;;;;27.83;8.50;;;;;;;6.82;46.50;99772.88;5054099;28;20063;-62
2022/04/15 01:59:45;;;;;;;24.58;7.95;;;;;;;7.08;46.77;99808.38;5052444;28;20021;-61
2022/04/15 02:02:11;;;;;;;24.20;8.38;;;;;;;7.10;46.90;99813.63;5053760;28;20507;-60
2022/04/15 02:04:37;;;;;;;27.15;8.68;;;;;;;7.06;47.11;99806.81;5054396;28;20029;-60
2022/04/15 02:07:03;;;;;;;22.02;8.18;;;;;;;7.10;47.07;99817.13;5053925;28;20021;-61
2022/04/15 02:09:29;;;;;;;20.00;7.72;;;;;;;7.12;46.80;99817.03;5053315;28;20071;-60
2022/04/15 02:11:55;;;;;;;25.52;7.88;;;;;;;7.11;46.72;99810.84;5053800;28;20037;-64
2022/04/15 02:14:21;;;;;;;17.63;7.70;;;;;;;7.15;46.48;99814.16;5054133;28;20132;-62
2022/04/15 02:16:48;;;;;;;22.25;8.15;;;;;;;7.15;46.70;99816.84;5053119;28;20033;-62
2022/04/15 02:19:13;;;;;;;25.92;8.23;;;;;;;7.08;46.86;99810.22;5053404;28;20037;-62
2022/04/15 02:21:39;;;;;;;28.23;8.43;;;;;;;7.04;46.92;99810.41;5043049;28;20040;-62
2022/04/15 02:24:06;;;;;;;23.55;8.13;;;;;;;6.99;47.14;99820.53;5033946;28;20111;-62
2022/04/15 02:26:31;;;;;;;27.05;7.95;;;;;;;6.93;46.88;99807.59;5031851;28;20124;-63
2022/04/15 02:28:57;;;;;;;28.80;8.10;;;;;;;6.92;47.11;99815.69;5033338;28;20152;-62
2022/04/15 02:31:22;;;;;;;20.30;8.05;;;;;;;6.86;47.87;99807.13;5033997;28;20041;-61
2022/04/15 02:33:48;;;;;;;24.50;7.75;;;;;;;6.88;47.50;99817.69;5033858;28;20128;-63
2022/04/15 02:36:14;;;;;;;24.70;7.97;;;;;;;6.82;47.49;99813.63;5031520;28;20257;-60
2022/04/15 02:38:39;;;;;;;22.10;7.28;;;;;;;6.88;47.49;99812.38;5033443;28;20029;-62
2022/04/15 02:41:06;;;;;;;21.58;7.55;;;;;;;6.87;47.57;99816.00;5033447;28;20111;-61
2022/04/15 02:43:33;;;;;;;24.25;8.27;;;;;;;6.79;47.31;99808.50;5033486;28;20438;-61
2022/04/15 02:45:59;;;;;;;23.13;7.60;;;;;;;6.81;47.42;99821.72;5032806;28;20120;-61
2022/04/15 02:48:26;;;;;;;27.00;7.75;;;;;;;6.78;47.81;99813.94;5033077;28;20037;-57
2022/04/15 02:50:52;;;;;;;28.85;7.38;;;;;;;6.71;47.69;99809.00;5032011;28;20039;-61
2022/04/15 02:53:17;;;;;;;23.35;7.38;;;;;;;6.75;47.73;99818.53;5033193;28;20032;-60
2022/04/15 02:55:43;;;;;;;25.88;7.47;;;;;;;6.71;47.93;99805.50;5031454;28;20041;-61
2022/04/15 02:58:08;;;;;;;28.70;7.97;;;;;;;6.74;48.25;99810.63;5032900;28;20139;-63
2022/04/15 03:00:34;;;;;;;15.23;7.90;;;;;;;6.65;47.89;99793.44;5033156;28;20048;-61
2022/04/15 03:02:59;;;;;;;21.50;8.07;;;;;;;6.53;48.29;99778.28;5032055;28;20138;-61
2022/04/15 03:05:25;;;;;;;14.82;7.15;;;;;;;6.78;48.36;99811.28;5033035;28;20029;-62
2022/04/15 03:07:50;;;;;;;15.07;7.35;;;;;;;6.81;47.94;99808.41;5032537;28;20030;-61
2022/04/15 03:10:16;;;;;;;18.85;7.95;;;;;;;6.83;47.92;99819.81;5032931;28;20033;-61
2022/04/15 03:12:41;;;;;;;29.02;8.32;;;;;;;6.86;47.63;99815.13;5031461;28;20029;-59
2022/04/15 03:15:11;;;;;;;23.20;7.97;;;;;;;6.93;47.86;99815.59;5032614;28;20021;-61
2022/04/15 03:17:36;;;;;;;25.52;7.80;;;;;;;6.92;47.81;99803.22;5032492;28;20342;-62
2022/04/15 03:20:04;;;;;;;17.58;8.00;;;;;;;7.02;47.50;99796.38;5031117;28;20041;-62
2022/04/15 03:22:34;;;;;;;24.95;8.27;;;;;;;7.18;47.28;99812.16;5032468;28;20025;-61
2022/04/15 03:24:59;;;;;;;25.17;7.75;;;;;;;7.30;46.65;99805.16;5031138;28;20048;-61
2022/04/15 03:27:25;;;;;;;18.73;7.90;;;;;;;7.49;46.47;99816.38;5032313;28;20378;-62
2022/04/15 03:29:50;;;;;;;18.45;7.43;;;;;;;7.61;45.78;99800.41;5032429;28;20040;-62
2022/04/15 03:32:16;;;;;;;23.13;8.10;;;;;;;7.86;45.39;99804.03;5030467;28;20040;-61
2022/04/15 03:34:41;;;;;;;19.17;7.60;;;;;;;8.46;44.03;99804.28;5030691;28;20437;-62
2022/04/15 03:37:07;;;;;;;23.38;7.45;;;;;;;9.27;42.44;99801.06;5032449;28;20040;-63
2022/04/15 03:39:32;;;;;;;17.85;6.90;;;;;;;10.15;39.93;99789.91;5032023;28;20425;-60
2022/04/15 03:41:58;;;;;;;19.55;7.30;;;;;;;10.83;37.77;99792.50;5030496;28;20041;-53
2022/04/15 03:44:24;;;;;;;19.05;6.95;;;;;;;11.07;37.33;99796.81;5032684;28;20366;-62
2022/04/15 03:46:49;;;;;;;18.30;6.82;;;;;;;11.42;36.51;99792.16;5031530;28;20033;-61
2022/04/15 03:49:14;;;;;;;15.02;6.38;;;;;;;11.96;35.34;99797.41;5031839;28;20048;-60
2022/04/15 03:51:40;;;;;;;20.95;6.95;;;;;;;12.85;33.59;99804.78;5032210;28;20028;-62
2022/04/15 03:54:05;;;;;;;18.17;7.07;;;;;;;13.38;31.29;99716.63;5031593;28;20029;-62
2022/04/15 03:56:32;;;;;;;18.50;7.05;;;;;;;14.75;29.86;99790.63;5031489;28;20036;-61
2022/04/15 03:58:57;;;;;;;17.98;6.82;;;;;;;14.87;28.88;99742.75;5032376;28;20044;-61
2022/04/15 04:01:24;;;;;;;17.00;6.18;;;;;;;14.96;28.58;99792.19;5031889;28;20359;-61
2022/04/15 04:03:51;;;;;;;13.02;5.90;;;;;;;14.63;29.38;99794.50;5030176;28;20191;-60
2022/04/15 04:06:17;;;;;;;13.57;5.78;;;;;;;14.21;29.15;99788.59;5031105;28;20033;-59
2022/04/15 04:08:49;;;;;;;10.90;5.85;;;;;;;13.75;29.80;99790.34;5031701;28;20112;-60
2022/04/15 04:11:16;;;;;;;13.60;4.97;;;;;;;13.20;30.86;99789.97;5033804;28;20032;-61
2022/04/15 04:13:41;;;;;;;9.35;4.82;;;;;;;12.75;31.34;99785.13;5039414;28;20116;-61
2022/04/15 04:16:07;;;;;;;9.57;4.60;;;;;;;12.33;32.00;99770.06;5041427;28;20094;-62
2022/04/15 04:18:32;;;;;;;14.60;4.20;;;;;;;12.12;32.04;99776.34;5043878;28;20046;-62
2022/04/15 04:20:58;;;;;;;9.40;4.22;;;;;;;11.85;32.54;99775.06;5039846;28;20033;-61
2022/04/15 04:23:23;;;;;;;15.80;4.70;;;;;;;11.65;32.69;99786.66;5039659;28;20025;-62
2022/04/15 04:25:49;;;;;;;12.38;4.70;;;;;;;11.48;32.63;99778.22;5039039;28;20879;-62
2022/04/15 04:28:14;;;;;;;13.73;4.45;;;;;;;11.27;33.31;99775.53;5041061;28;20032;-61
2022/04/15 04:30:40;;;;;;;11.30;4.07;;;;;;;11.15;33.38;99782.78;5038893;28;20110;-62
2022/04/15 04:33:05;;;;;;;11.93;4.18;;;;;;;11.01;33.84;99776.72;5038014;28;20052;-60
2022/04/15 04:35:31;;;;;;;17.08;3.92;;;;;;;10.90;33.84;99779.47;5040573;28;20068;-66
2022/04/15 04:37:56;;;;;;;13.82;3.78;;;;;;;10.79;34.08;99772.31;5039290;28;20164;-66
2022/04/15 04:40:22;;;;;;;13.70;3.85;;;;;;;10.71;33.81;99772.06;5040348;28;20036;-66
2022/04/15 04:42:50;;;;;;;13.10;4.00;;;;;;;10.55;34.36;99745.72;5038928;28;20123;-68
2022/04/15 04:45:16;;;;;;;12.80;4.53;;;;;;;10.39;34.11;99727.38;5040656;28;20021;-63
2022/04/15 04:47:44;;;;;;;13.23;4.07;;;;;;;10.64;34.03;99763.72;5038320;28;20026;-66
2022/04/15 04:50:10;;;;;;;11.05;4.45;;;;;;;10.72;34.39;99771.97;5038443;28;20380;-62
2022/04/15 04:52:36;;;;;;;16.88;4.13;;;;;;;10.76;33.92;99757.34;5039887;28;20032;-63
2022/04/15 04:55:03;;;;;;;14.75;4.90;;;;;;;10.97;34.21;99785.13;5038949;28;20460;-62
2022/04/15 04:57:29;;;;;;;13.30;3.95;;;;;;;11.04;33.52;99776.47;5039218;28;20052;-62
2022/04/15 04:59:56;;;;;;;13.93;3.92;;;;;;;11.13;33.73;99774.84;5039548;28;20464;-66
2022/04/15 05:02:22;;;;;;;16.75;3.97;;;;;;;10.95;33.53;99745.09;5037867;28;20534;-61
2022/04/15 05:04:48;;;;;;;20.30;4.60;;;;;;;11.21;33.82;99790.28;5038997;28;20035;-65
2022/04/15 05:07:14;;;;;;;14.68;4.20;;;;;;;11.27;33.68;99781.72;5040407;28;20025;-66
2022/04/15 05:09:42;;;;;;;16.95;4.13;;;;;;;11.38;33.42;99780.81;5037772;28;20095;-58
2022/04/15 05:12:11;;;;;;;14.65;3.92;;;;;;;11.61;33.37;99788.75;5039706;28;20028;-58
2022/04/15 05:14:37;;;;;;;11.65;3.88;;;;;;;11.72;33.16;99783.31;5038143;28;20102;-61
2022/04/15 05:17:04;;;;;;;13.20;3.97;;;;;;;11.88;32.96;99773.91;5037965;28;20468;-68
2022/04/15 05:19:29;;;;;;;14.80;4.20;;;;;;;11.97;32.53;99764.22;5039783;28;20063;-61
2022/04/15 05:21:55;;;;;;;14.23;3.90;;;;;;;12.15;32.54;99768.00;5038283;28;20025;-68
2022/04/15 05:24:20;;;;;;;10.73;4.00;;;;;;;12.16;32.24;99758.09;5039568;28;20431;-68
2022/04/15 05:26:46;;;;;;;15.90;6.13;;;;;;;12.29;32.18;99765.91;5039507;28;20037;-68
2022/04/15 05:29:11;;;;;;;13.48;4.70;;;;;;;12.34;32.13;99758.31;5037835;28;20034;-68
2022/04/15 05:31:37;;;;;;;26.00;7.07;;;;;;;12.44;32.35;99758.34;5037204;28;20031;-67
2022/04/15 05:34:03;;;;;;;15.15;4.32;;;;;;;12.48;32.39;99754.41;5038768;28;20037;-68
2022/04/15 05:36:29;;;;;;;11.05;4.00;;;;;;;12.68;31.94;99760.66;5039648;28;20079;-66
2022/04/15 05:38:54;;;;;;;16.75;4.40;;;;;;;12.94;31.59;99759.25;5037940;28;20025;-65
2022/04/15 05:41:20;;;;;;;10.55;3.83;;;;;;;13.16;30.59;99753.59;5039392;28;20436;-68
2022/04/15 05:43:46;;;;;;;13.07;4.07;;;;;;;13.29;30.86;99753.31;5037406;28;20037;-67
2022/04/15 05:46:12;;;;;;;14.27;4.68;;;;;;;13.52;30.47;99754.84;5037982;28;20113;-66
2022/04/15 05:48:38;;;;;;;18.60;4.63;;;;;;;13.83;30.18;99750.09;5039700;28;20158;-67
2022/04/15 05:51:03;;;;;;;14.73;4.82;;;;;;;14.25;29.39;99753.34;5037309;28;20053;-66
2022/04/15 05:53:29;;;;;;;17.25;4.53;;;;;;;14.73;28.90;99757.59;5038286;28;20028;-65
2022/04/15 05:55:56;;;;;;;19.45;4.60;;;;;;;15.53;27.79;99761.31;5040348;28;20025;-64
2022/04/15 05:58:22;;;;;;;18.33;5.35;;;;;;;16.60;26.29;99744.81;5038937;28;20472;-64
2022/04/15 06:00:47;;;;;;;19.45;4.47;;;;;;;18.98;23.14;99750.06;5037245;28;20100;-65
2022/04/15 06:03:12;;;;;;;22.35;4.47;;;;;;;21.21;20.31;99752.09;5042938;28;20028;-64
2022/04/15 06:05:38;;;;;;;16.45;4.13;;;;;;;22.23;19.16;99749.03;5034169;28;20034;-65
2022/04/15 06:08:04;;;;;;;17.75;4.10;;;;;;;23.51;17.65;99755.69;5027737;28;20125;-66
2022/04/15 06:10:30;;;;;;;13.93;4.32;;;;;;;24.70;16.16;99751.16;5027654;28;20076;-63
2022/04/15 06:13:04;;;;;;;17.80;3.47;;;;;;;25.47;15.66;99749.41;5028526;28;20060;-70
2022/04/15 06:15:33;;;;;;;22.02;3.50;;;;;;;26.14;14.76;99748.72;5027789;28;20034;-68
2022/04/15 06:18:02;;;;;;;17.55;3.38;;;;;;;27.05;14.51;99752.66;5027291;28;20093;-68
2022/04/15 06:20:29;;;;;;;11.75;3.15;;;;;;;27.70;12.80;99755.63;5029685;28;20029;-66
2022/04/15 06:22:54;;;;;;;11.85;3.08;;;;;;;28.56;12.17;99743.19;5045449;28;20107;-63
2022/04/15 06:25:20;;;;;;;17.23;2.83;;;;;;;29.61;11.47;99742.84;5048995;28;20482;-69
2022/04/15 06:27:46;;;;;;;12.90;3.28;;;;;;;30.72;10.56;99750.38;5042375;28;20083;-71
2022/04/15 06:30:12;;;;;;;12.38;2.70;;;;;;;31.56;9.68;99747.25;5052128;28;20079;-67
2022/04/15 06:32:38;;;;;;;13.32;2.72;;;;;;;32.14;9.24;99727.16;5054016;28;20069;-68
2022/04/15 06:35:06;;;;;;;14.75;2.92;;;;;;;33.30;8.71;99744.63;5053761;28;20040;-67
2022/04/15 06:37:32;;;;;;;12.13;2.80;;;;;;;33.90;7.78;99738.44;5053307;28;20032;-68
2022/04/15 06:39:58;;;;;;;5.18;2.38;;;;;;;34.73;6.99;99735.34;5053597;28;20028;-67
2022/04/15 06:42:24;;;;;;;7.47;2.20;;;;;;;35.72;6.40;99721.44;5053089;28;20036;-68
2022/04/15 06:44:50;;;;;;;8.50;2.20;;;;;;;36.44;6.20;99742.06;5042508;28;20036;-69
2022/04/15 06:47:16;;;;;;;6.65;2.05;;;;;;;36.92;5.59;99740.28;5035553;28;20163;-66
2022/04/15 06:49:42;;;;;;;7.45;2.08;;;;;;;36.92;5.35;99735.53;5033673;28;20098;-66
2022/04/15 06:52:08;;;;;;;12.30;2.38;;;;;;;36.46;5.49;99727.81;5053076;28;20033;-66
2022/04/15 06:54:34;;;;;;;8.15;2.63;;;;;;;36.75;5.67;99724.91;5052287;28;20029;-66
2022/04/15 06:56:59;;;;;;;9.80;2.53;;;;;;;37.70;4.92;99719.44;5053025;28;20025;-67
2022/04/15 06:59:24;;;;;;;8.13;2.50;;;;;;;38.73;4.76;99714.47;5052826;28;20108;-68
2022/04/15 07:01:50;;;;;;;5.47;2.25;;;;;;;39.60;4.43;99707.00;5053000;28;20476;-67
2022/04/15 07:04:16;;;;;;;9.27;2.75;;;;;;;39.73;4.47;99714.50;5052491;28;20353;-65
2022/04/15 07:06:42;;;;;;;6.38;2.30;;;;;;;39.52;4.59;99702.19;5050831;28;20029;-66
2022/04/15 07:09:07;;;;;;;6.35;2.20;;;;;;;39.13;4.34;99702.59;5052031;28;20036;-64
2022/04/15 07:11:33;;;;;;;13.38;2.60;;;;;;;37.88;5.41;99701.75;5052211;28;20033;-63
2022/04/15 07:13:58;;;;;;;9.13;2.30;;;;;;;36.66;5.60;99709.16;5052693;28;20108;-65
2022/04/15 07:16:24;;;;;;;9.63;2.30;;;;;;;35.72;6.36;99679.69;5052319;28;20366;-65
2022/04/15 07:18:51;;;;;;;11.00;2.80;;;;;;;35.50;6.20;99691.31;5052344;28;20047;-63
2022/04/15 07:21:18;;;;;;;9.88;2.83;;;;;;;36.03;6.04;99692.44;5051577;28;20382;-65
2022/04/15 07:23:44;;;;;;;5.70;2.70;;;;;;;37.09;5.14;99700.69;5052205;28;20021;-62
2022/04/15 07:26:10;;;;;;;10.10;3.05;;;;;;;38.43;5.03;99688.88;5051214;28;20048;-64
2022/04/15 07:28:35;;;;;;;5.75;2.30;;;;;;;39.04;4.20;99688.56;5050666;28;20380;-62
2022/04/15 07:31:01;;;;;;;5.10;2.20;;;;;;;39.33;4.16;99694.81;5051495;28;20605;-65
2022/04/15 07:33:27;;;;;;;5.25;2.20;;;;;;;39.42;4.05;99686.50;5051867;28;20037;-69
2022/04/15 07:35:53;;;;;;;23.38;3.00;;;;;;;38.95;4.38;99682.09;5051444;28;20144;-65
2022/04/15 07:38:18;;;;;;;8.00;2.40;;;;;;;38.31;4.78;99667.03;5050681;28;20108;-63
2022/04/15 07:40:43;;;;;;;7.45;2.40;;;;;;;37.42;4.94;99664.34;5049371;28;20037;-63
2022/04/15 07:43:09;;;;;;;8.77;2.30;;;;;;;36.37;5.80;99676.66;5052363;28;20029;-62
2022/04/15 07:45:35;;;;;;;3.63;1.70;;;;;;;35.44;5.51;99675.78;5051740;28;20118;-61
2022/04/15 07:48:00;;;;;;;2.70;1.75;;;;;;;34.82;6.20;99679.91;5051735;28;20186;-62
2022/04/15 07:50:26;;;;;;;5.72;2.00;;;;;;;34.81;5.76;99669.09;5051344;28;20460;-61
2022/04/15 07:52:56;;;;;;;4.32;1.48;;;;;;;35.14;6.08;99684.16;5051620;28;20040;-65
2022/04/15 07:55:22;;;;;;;3.20;1.92;;;;;;;34.53;6.18;99668.75;5051374;28;20033;-60
2022/04/15 07:57:48;;;;;;;6.30;1.90;;;;;;;33.49;6.85;99630.28;5051329;28;20025;-63
2022/04/15 08:00:14;;;;;;;5.70;1.60;;;;;;;32.04;7.31;99631.03;5048382;28;20655;-65
2022/04/15 08:02:40;;;;;;;6.28;1.83;;;;;;;30.90;7.90;99663.50;5041389;28;20446;-65
2022/04/15 08:05:06;;;;;;;7.60;1.67;;;;;;;29.49;8.92;99662.13;5043855;28;20058;-63
2022/04/15 08:07:31;;;;;;;3.05;1.40;;;;;;;28.17;10.05;99667.53;5046591;28;20048;-65
2022/04/15 08:09:57;;;;;;;4.45;1.85;;;;;;;27.03;10.43;99669.63;5042056;28;20021;-66
2022/04/15 08:12:22;;;;;;;4.40;1.70;;;;;;;26.02;11.08;99640.81;5040361;28;20079;-64
2022/04/15 08:14:48;;;;;;;9.23;1.80;;;;;;;25.43;11.96;99664.00;5041067;28;20032;-63
2022/04/15 08:17:14;;;;;;;4.22;1.90;;;;;;;24.70;12.56;99657.22;5037047;28;20033;-64
2022/04/15 08:19:39;;;;;;;4.78;1.90;;;;;;;24.07;12.88;99665.16;5038556;28;20092;-62
2022/04/15 08:22:09;;;;;;;9.23;2.20;;;;;;;23.55;12.97;99662.38;5040016;28;20095;-63
2022/04/15 08:24:39;;;;;;;6.20;1.63;;;;;;;23.19;13.79;99654.38;5037262;28;20120;-66
2022/04/15 08:27:05;;;;;;;8.25;1.70;;;;;;;22.87;14.13;99661.53;5040847;28;20120;-62
2022/04/15 08:29:30;;;;;;;6.15;1.60;;;;;;;22.44;14.68;99651.78;5040447;28;20112;-64
2022/04/15 08:31:56;;;;;;;4.82;1.63;;;;;;;22.16;14.88;99661.75;5039420;28;20036;-63
2022/04/15 08:34:21;;;;;;;4.82;1.92;;;;;;;21.92;15.02;99658.50;5038868;28;20041;-63
2022/04/15 08:36:47;;;;;;;4.35;1.60;;;;;;;21.66;15.56;99661.97;5047104;28;20062;-62
2022/04/15 08:39:12;;;;;;;5.30;1.63;;;;;;;21.31;16.24;99643.69;5047172;28;20136;-65
2022/04/15 08:41:42;;;;;;;7.45;1.90;;;;;;;21.34;16.36;99658.78;5038452;28;20033;-64
2022/04/15 08:44:08;;;;;;;8.35;1.80;;;;;;;21.03;16.57;99651.84;5030368;28;20147;-62
2022/04/15 08:46:35;;;;;;;15.60;1.70;;;;;;;20.98;16.60;99666.06;5031152;28;20360;-62
2022/04/15 08:49:01;;;;;;;9.90;1.17;;;;;;;20.89;16.55;99669.94;5036296;28;20033;-67
2022/04/15 08:51:28;;;;;;;4.00;0.75;;;;;;;20.52;16.84;99661.81;5046962;28;20040;-63
2022/04/15 08:53:54;;;;;;;2.33;1.17;;;;;;;20.27;17.50;99654.03;5049072;28;20121;-63
2022/04/15 08:56:23;;;;;;;2.63;1.10;;;;;;;20.29;17.42;99659.28;5050784;28;20425;-62
2022/04/15 08:58:49;;;;;;;5.15;1.08;;;;;;;19.97;17.24;99653.25;5050376;28;20029;-67
2022/04/15 09:01:14;;;;;;;4.82;0.93;;;;;;;19.84;17.58;99657.44;5032327;28;20032;-62
2022/04/15 09:03:40;;;;;;;24.20;2.08;;;;;;;19.73;17.72;99644.34;5050341;28;20029;-63
2022/04/15 09:06:15;;;;;;;6.72;1.42;;;;;;;19.84;17.57;99633.00;5050198;28;20045;-63
2022/04/15 09:09:06;;;;;;;6.47;1.42;;;;;;;20.01;17.72;99649.97;5050198;28;20458;-64
2022/04/15 09:11:34;;;;;;;3.95;1.20;;;;;;;19.73;18.23;99647.91;5046321;28;20227;-69
2022/04/15 09:14:03;;;;;;;5.00;1.13;;;;;;;19.44;18.03;99663.19;5029672;28;20532;-64
2022/04/15 09:16:30;;;;;;;6.50;1.15;;;;;;;19.06;18.82;99647.78;5038519;28;20039;-63
2022/04/15 09:18:56;;;;;;;5.63;1.40;;;;;;;18.72;19.00;99654.44;5032456;28;20040;-64
2022/04/15 09:21:27;;;;;;;8.25;1.30;;;;;;;18.33;19.61;99647.28;5047513;28;20039;-65
2022/04/15 09:23:55;;;;;;;5.25;1.25;;;;;;;17.84;20.00;99643.75;5050407;28;20056;-66
2022/04/15 09:26:22;;;;;;;6.18;1.30;;;;;;;17.53;20.69;99643.72;5050149;28;20033;-65
2022/04/15 09:28:49;;;;;;;4.95;1.30;;;;;;;17.39;20.99;99651.53;5049974;28;20029;-63
2022/04/15 09:31:16;;;;;;;5.15;1.40;;;;;;;17.28;21.19;99658.16;5050223;28;20064;-62
2022/04/15 09:33:55;;;;;;;3.92;1.38;;;;;;;17.38;20.97;99659.84;5050397;28;20099;-65
2022/04/15 09:36:28;;;;;;;3.33;1.33;;;;;;;17.32;21.35;99654.06;5049072;28;20124;-66
2022/04/15 09:39:04;;;;;;;2.92;1.20;;;;;;;17.39;21.32;99645.28;5030531;28;20041;-67
2022/04/15 09:41:30;;;;;;;4.75;1.35;;;;;;;17.47;21.59;99653.38;5012565;28;20033;-64
2022/04/15 09:44:00;;;;;;;5.72;1.55;;;;;;;17.69;21.26;99645.53;5030190;28;20035;-65
2022/04/15 09:46:27;;;;;;;5.13;1.48;;;;;;;17.47;21.65;99600.06;5034762;28;20033;-66
2022/04/15 09:49:03;;;;;;;4.97;1.40;;;;;;;17.96;20.96;99646.91;5030079;28;20040;-64
2022/04/15 09:51:30;;;;;;;3.10;1.42;;;;;;;17.90;21.36;99637.66;5042765;28;20044;-61
2022/04/15 09:54:01;;;;;;;4.70;1.17;;;;;;;18.06;21.38;99646.75;5049398;28;20127;-62
2022/04/15 09:56:27;;;;;;;11.88;1.50;;;;;;;18.13;21.29;99644.16;5050315;28;20458;-63
2022/04/15 09:58:56;;;;;;;6.78;1.50;;;;;;;18.17;21.68;99645.50;5049427;28;20044;-65
2022/04/15 10:01:26;;;;;;;6.97;1.63;;;;;;;18.02;21.32;99602.94;5049909;28;20453;-63
2022/04/15 10:03:54;;;;;;;4.30;1.75;;;;;;;18.22;21.47;99648.53;5052066;28;20037;-65
2022/04/15 10:06:20;;;;;;;4.13;1.30;;;;;;;17.81;21.88;99633.28;5053975;28;20046;-65
2022/04/15 10:08:47;;;;;;;7.60;1.42;;;;;;;17.55;22.37;99656.06;5050483;28;20469;-63
2022/04/15 10:11:14;;;;;;;3.08;1.40;;;;;;;17.35;22.72;99656.44;5053647;28;20140;-64
2022/04/15 10:13:43;;;;;;;5.22;1.73;;;;;;;17.18;23.16;99650.22;5053765;28;20112;-66
2022/04/15 10:16:10;;;;;;;3.03;1.70;;;;;;;17.05;23.60;99648.03;5050614;28;20466;-65
2022/04/15 10:18:36;;;;;;;6.47;1.40;;;;;;;16.90;24.12;99668.66;5033516;28;20037;-66
2022/04/15 10:21:03;;;;;;;3.65;1.35;;;;;;;16.45;24.58;99660.84;5037182;28;20033;-64
2022/04/15 10:23:31;;;;;;;4.22;1.48;;;;;;;15.91;25.36;99634.19;5042349;28;20037;-64
2022/04/15 10:26:01;;;;;;;1.95;1.23;;;;;;;15.88;25.91;99670.44;5034214;28;20040;-64
2022/04/15 10:28:42;;;;;;;5.13;1.40;;;;;;;15.88;25.31;99650.69;5041856;28;20076;-63
2022/04/15 10:31:13;;;;;;;4.25;1.67;;;;;;;15.70;26.53;99659.72;5038862;28;20037;-62
2022/04/15 10:33:40;;;;;;;4.80;1.30;;;;;;;15.60;26.39;99662.53;5036439;28;20053;-64
2022/04/15 10:36:20;;;;;;;2.42;1.30;;;;;;;15.65;26.59;99654.78;5046857;28;20061;-63
2022/04/15 10:39:04;;;;;;;2.42;1.33;;;;;;;15.65;25.87;99651.25;5050649;28;20031;-65
2022/04/15 10:41:50;;;;;;;3.92;1.35;;;;;;;15.61;26.38;99653.41;5051584;28;20039;-64
2022/04/15 10:44:28;;;;;;;3.90;1.80;;;;;;;15.46;26.45;99646.94;5051626;28;20056;-65
2022/04/15 10:47:03;;;;;;;4.63;1.60;;;;;;;15.10;26.92;99630.88;5052624;28;20051;-66
2022/04/15 10:49:30;;;;;;;4.03;1.75;;;;;;;14.98;27.74;99639.22;5049296;28;20095;-66
2022/04/15 10:52:02;;;;;;;3.75;1.50;;;;;;;15.17;27.44;99642.72;5046907;28;20116;-65
2022/04/15 10:54:36;;;;;;;4.90;1.88;;;;;;;15.45;26.92;99642.56;5051799;28;20757;-61
2022/04/15 10:57:03;;;;;;;5.28;1.70;;;;;;;15.60;26.98;99634.72;5046216;28;20040;-66
2022/04/15 11:02:21;;;;;;;1.83;1.40;;;;;;;15.75;26.86;99637.66;5049242;28;20029;-64
2022/04/15 11:04:51;;;;;;;3.10;1.80;;;;;;;15.70;27.35;99637.28;5041631;28;20028;-64
2022/04/15 11:07:28;;;;;;;4.15;1.50;;;;;;;15.51;27.88;99636.53;5036408;28;20034;-68
2022/04/15 11:09:55;;;;;;;7.18;1.50;;;;;;;15.15;28.07;99626.69;5033061;28;20044;-64
2022/04/15 11:12:35;;;;;;;6.20;1.70;;;;;;;15.10;27.77;99631.72;5032779;28;20025;-64
2022/04/15 11:15:02;;;;;;;5.32;1.77;;;;;;;14.78;28.66;99630.47;5032472;28;20033;-65
2022/04/15 11:17:44;;;;;;;5.45;1.77;;;;;;;14.83;28.23;99632.69;5032638;28;20041;-65
2022/04/15 11:20:10;;;;;;;3.22;1.50;;;;;;;14.50;29.06;99617.94;5038109;28;20108;-64
2022/04/15 11:22:40;;;;;;;2.92;1.58;;;;;;;14.54;29.14;99625.69;5041287;28;20447;-64
2022/04/15 11:25:11;;;;;;;5.18;1.92;;;;;;;14.42;29.31;99634.00;5041361;28;20033;-64
2022/04/15 11:27:39;;;;;;;6.18;1.60;;;;;;;14.37;29.95;99619.31;5041426;28;20052;-65
2022/04/15 11:30:12;;;;;;;7.95;1.73;;;;;;;14.52;29.59;99611.53;5050784;28;20067;-62
2022/04/15 11:32:58;;;;;;;6.10;1.70;;;;;;;14.57;28.98;99615.44;5051027;28;20060;-65
2022/04/15 11:35:31;;;;;;;2.50;1.67;;;;;;;14.50;29.24;99606.28;5031550;28;20063;-62